Terminal Aerodrome Forecast
Issued by NWS Charleston, WV

Home | Current Version | Previous Version | Text Only | Print | Product List | Glossary On
Versions: 1 2 3 4 5 6 7 8 9 10 11 12 13 14 15 16 17 18 19 20
000
FTUS41 KRLX 290500
TAFPKB
TAF
KPKB 290530Z 2906/3006 00000KT 1/4SM FG VV001
     FM291200 00000KT 1 1/2SM BR OVC019
     FM291500 VRB03KT 6SM BR BKN040
     FM291600 VRB03KT P6SM BKN040
     FM292100 36005KT P6SM SCT040=

USA.gov is the U.S. government's official web portal to all federal, state and local government web resources and services.